sensor_id;sensor_type;location;lat;lon;timestamp;P1;durP1;ratioP1;P2;durP2;ratioP2
47715;SDS011;33476;50.984;3.538;2023-07-13T00:01:45;8.73;;;1.10;;
47715;SDS011;33476;50.984;3.538;2023-07-13T00:04:14;7.88;;;0.95;;
47715;SDS011;33476;50.984;3.538;2023-07-13T00:06:44;9.95;;;1.05;;
47715;SDS011;33476;50.984;3.538;2023-07-13T00:09:11;5.32;;;0.73;;
47715;SDS011;33476;50.984;3.538;2023-07-13T00:11:38;8.93;;;1.10;;
47715;SDS011;33476;50.984;3.538;2023-07-13T00:14:04;14.45;;;1.20;;
47715;SDS011;33476;50.984;3.538;2023-07-13T00:16:30;10.30;;;1.20;;
47715;SDS011;33476;50.984;3.538;2023-07-13T00:18:55;14.40;;;1.58;;
47715;SDS011;33476;50.984;3.538;2023-07-13T00:21:20;10.50;;;0.95;;
47715;SDS011;33476;50.984;3.538;2023-07-13T00:23:46;10.23;;;1.40;;
47715;SDS011;33476;50.984;3.538;2023-07-13T00:26:11;5.72;;;0.82;;
47715;SDS011;33476;50.984;3.538;2023-07-13T00:28:37;5.07;;;0.70;;
47715;SDS011;33476;50.984;3.538;2023-07-13T00:31:04;7.30;;;1.23;;
47715;SDS011;33476;50.984;3.538;2023-07-13T00:33:30;6.80;;;0.95;;
47715;SDS011;33476;50.984;3.538;2023-07-13T00:35:55;10.55;;;1.10;;
47715;SDS011;33476;50.984;3.538;2023-07-13T00:38:21;14.10;;;1.33;;
47715;SDS011;33476;50.984;3.538;2023-07-13T00:40:47;9.30;;;1.15;;
47715;SDS011;33476;50.984;3.538;2023-07-13T00:43:13;12.50;;;1.20;;
47715;SDS011;33476;50.984;3.538;2023-07-13T00:48:08;10.02;;;1.15;;
47715;SDS011;33476;50.984;3.538;2023-07-13T00:50:34;13.02;;;1.42;;
47715;SDS011;33476;50.984;3.538;2023-07-13T00:52:59;10.20;;;1.25;;
47715;SDS011;33476;50.984;3.538;2023-07-13T00:55:24;10.60;;;1.38;;
47715;SDS011;33476;50.984;3.538;2023-07-13T00:57:50;12.20;;;1.83;;
47715;SDS011;33476;50.984;3.538;2023-07-13T01:00:15;10.98;;;1.48;;
47715;SDS011;33476;50.984;3.538;2023-07-13T01:02:42;11.25;;;1.67;;
47715;SDS011;33476;50.984;3.538;2023-07-13T01:05:12;10.82;;;1.52;;
47715;SDS011;33476;50.984;3.538;2023-07-13T01:07:40;11.10;;;1.70;;
47715;SDS011;33476;50.984;3.538;2023-07-13T01:10:07;10.27;;;1.75;;
47715;SDS011;33476;50.984;3.538;2023-07-13T01:12:32;10.98;;;1.70;;
47715;SDS011;33476;50.984;3.538;2023-07-13T01:14:58;10.60;;;2.42;;
47715;SDS011;33476;50.984;3.538;2023-07-13T01:17:25;13.32;;;2.33;;
47715;SDS011;33476;50.984;3.538;2023-07-13T01:19:52;14.77;;;1.80;;
47715;SDS011;33476;50.984;3.538;2023-07-13T01:22:18;13.23;;;2.80;;
47715;SDS011;33476;50.984;3.538;2023-07-13T01:24:45;10.38;;;2.60;;
47715;SDS011;33476;50.984;3.538;2023-07-13T01:27:14;16.42;;;2.72;;
47715;SDS011;33476;50.984;3.538;2023-07-13T01:29:41;13.40;;;2.10;;
47715;SDS011;33476;50.984;3.538;2023-07-13T01:32:08;11.93;;;1.70;;
47715;SDS011;33476;50.984;3.538;2023-07-13T01:34:35;7.43;;;1.13;;
47715;SDS011;33476;50.984;3.538;2023-07-13T01:37:02;16.05;;;1.85;;
47715;SDS011;33476;50.984;3.538;2023-07-13T01:39:28;11.43;;;2.15;;
47715;SDS011;33476;50.984;3.538;2023-07-13T01:41:53;9.98;;;1.75;;
47715;SDS011;33476;50.984;3.538;2023-07-13T01:44:18;11.40;;;1.63;;
47715;SDS011;33476;50.984;3.538;2023-07-13T01:46:44;10.13;;;1.73;;
47715;SDS011;33476;50.984;3.538;2023-07-13T01:49:09;8.32;;;1.83;;
47715;SDS011;33476;50.984;3.538;2023-07-13T01:51:34;9.30;;;1.48;;
47715;SDS011;33476;50.984;3.538;2023-07-13T01:54:00;12.38;;;1.98;;
47715;SDS011;33476;50.984;3.538;2023-07-13T01:56:25;14.82;;;1.83;;
47715;SDS011;33476;50.984;3.538;2023-07-13T01:58:51;11.85;;;2.15;;
47715;SDS011;33476;50.984;3.538;2023-07-13T02:01:17;9.82;;;1.23;;
47715;SDS011;33476;50.984;3.538;2023-07-13T02:03:42;13.20;;;1.60;;
47715;SDS011;33476;50.984;3.538;2023-07-13T02:06:07;8.88;;;1.63;;
47715;SDS011;33476;50.984;3.538;2023-07-13T02:08:33;13.05;;;1.50;;
47715;SDS011;33476;50.984;3.538;2023-07-13T02:10:59;11.80;;;1.20;;
47715;SDS011;33476;50.984;3.538;2023-07-13T02:13:24;10.52;;;1.80;;
47715;SDS011;33476;50.984;3.538;2023-07-13T02:15:50;8.07;;;1.48;;
47715;SDS011;33476;50.984;3.538;2023-07-13T02:18:16;12.05;;;1.88;;
47715;SDS011;33476;50.984;3.538;2023-07-13T02:20:42;12.35;;;1.52;;
47715;SDS011;33476;50.984;3.538;2023-07-13T02:23:08;14.63;;;1.48;;
47715;SDS011;33476;50.984;3.538;2023-07-13T02:25:33;12.70;;;1.60;;
47715;SDS011;33476;50.984;3.538;2023-07-13T02:27:58;11.93;;;1.35;;
47715;SDS011;33476;50.984;3.538;2023-07-13T02:30:24;13.75;;;1.65;;
47715;SDS011;33476;50.984;3.538;2023-07-13T02:32:50;9.45;;;1.50;;
47715;SDS011;33476;50.984;3.538;2023-07-13T02:35:15;11.38;;;1.52;;
47715;SDS011;33476;50.984;3.538;2023-07-13T02:37:41;11.35;;;1.80;;
47715;SDS011;33476;50.984;3.538;2023-07-13T02:40:06;8.27;;;1.55;;
47715;SDS011;33476;50.984;3.538;2023-07-13T02:42:33;10.13;;;1.77;;
47715;SDS011;33476;50.984;3.538;2023-07-13T02:44:59;10.60;;;1.85;;
47715;SDS011;33476;50.984;3.538;2023-07-13T02:47:25;11.85;;;1.95;;
47715;SDS011;33476;50.984;3.538;2023-07-13T02:49:51;13.20;;;1.83;;
47715;SDS011;33476;50.984;3.538;2023-07-13T02:52:17;10.00;;;1.42;;
47715;SDS011;33476;50.984;3.538;2023-07-13T02:54:42;12.18;;;1.42;;
47715;SDS011;33476;50.984;3.538;2023-07-13T02:57:07;14.18;;;2.13;;
47715;SDS011;33476;50.984;3.538;2023-07-13T02:59:33;16.67;;;1.52;;
47715;SDS011;33476;50.984;3.538;2023-07-13T03:01:58;9.75;;;1.25;;
47715;SDS011;33476;50.984;3.538;2023-07-13T03:04:23;10.95;;;1.38;;
47715;SDS011;33476;50.984;3.538;2023-07-13T03:06:49;14.75;;;1.75;;
47715;SDS011;33476;50.984;3.538;2023-07-13T03:09:15;8.57;;;1.65;;
47715;SDS011;33476;50.984;3.538;2023-07-13T03:11:40;16.20;;;1.85;;
47715;SDS011;33476;50.984;3.538;2023-07-13T03:14:06;12.18;;;1.83;;
47715;SDS011;33476;50.984;3.538;2023-07-13T03:16:33;12.82;;;1.85;;
47715;SDS011;33476;50.984;3.538;2023-07-13T03:18:58;9.50;;;1.70;;
47715;SDS011;33476;50.984;3.538;2023-07-13T03:21:23;12.20;;;1.52;;
47715;SDS011;33476;50.984;3.538;2023-07-13T03:23:49;11.98;;;1.92;;
47715;SDS011;33476;50.984;3.538;2023-07-13T03:26:15;10.07;;;1.77;;
47715;SDS011;33476;50.984;3.538;2023-07-13T03:28:43;12.63;;;1.92;;
47715;SDS011;33476;50.984;3.538;2023-07-13T03:31:10;10.13;;;1.48;;
47715;SDS011;33476;50.984;3.538;2023-07-13T03:33:37;11.45;;;1.52;;
47715;SDS011;33476;50.984;3.538;2023-07-13T03:36:04;10.82;;;1.30;;
47715;SDS011;33476;50.984;3.538;2023-07-13T03:38:30;11.45;;;1.50;;
47715;SDS011;33476;50.984;3.538;2023-07-13T03:40:56;7.63;;;1.15;;
47715;SDS011;33476;50.984;3.538;2023-07-13T03:43:21;13.02;;;1.50;;
47715;SDS011;33476;50.984;3.538;2023-07-13T03:45:47;12.55;;;1.83;;
47715;SDS011;33476;50.984;3.538;2023-07-13T03:48:12;10.02;;;1.75;;
47715;SDS011;33476;50.984;3.538;2023-07-13T03:50:38;10.05;;;1.50;;
47715;SDS011;33476;50.984;3.538;2023-07-13T03:53:03;11.18;;;1.13;;
47715;SDS011;33476;50.984;3.538;2023-07-13T03:55:29;10.48;;;1.35;;
47715;SDS011;33476;50.984;3.538;2023-07-13T03:57:59;15.00;;;2.05;;
47715;SDS011;33476;50.984;3.538;2023-07-13T04:00:45;10.77;;;1.48;;
47715;SDS011;33476;50.984;3.538;2023-07-13T04:03:10;9.30;;;1.95;;
47715;SDS011;33476;50.984;3.538;2023-07-13T04:05:36;11.05;;;1.90;;
47715;SDS011;33476;50.984;3.538;2023-07-13T04:08:01;9.85;;;1.10;;
47715;SDS011;33476;50.984;3.538;2023-07-13T04:10:26;10.05;;;1.30;;
47715;SDS011;33476;50.984;3.538;2023-07-13T04:12:51;9.60;;;1.23;;
47715;SDS011;33476;50.984;3.538;2023-07-13T04:15:17;9.38;;;0.95;;
47715;SDS011;33476;50.984;3.538;2023-07-13T04:17:42;10.02;;;1.13;;
47715;SDS011;33476;50.984;3.538;2023-07-13T04:20:08;13.35;;;1.48;;
47715;SDS011;33476;50.984;3.538;2023-07-13T04:22:33;12.55;;;1.77;;
47715;SDS011;33476;50.984;3.538;2023-07-13T04:24:58;12.60;;;1.85;;
47715;SDS011;33476;50.984;3.538;2023-07-13T04:27:24;15.25;;;1.83;;
47715;SDS011;33476;50.984;3.538;2023-07-13T04:29:49;10.68;;;1.50;;
47715;SDS011;33476;50.984;3.538;2023-07-13T04:32:14;10.65;;;1.50;;
47715;SDS011;33476;50.984;3.538;2023-07-13T04:34:40;12.45;;;1.77;;
47715;SDS011;33476;50.984;3.538;2023-07-13T04:37:05;9.15;;;1.50;;
47715;SDS011;33476;50.984;3.538;2023-07-13T04:39:30;16.45;;;1.55;;
47715;SDS011;33476;50.984;3.538;2023-07-13T04:41:56;11.10;;;1.30;;
47715;SDS011;33476;50.984;3.538;2023-07-13T04:44:21;10.82;;;1.48;;
47715;SDS011;33476;50.984;3.538;2023-07-13T04:46:46;9.90;;;1.60;;
47715;SDS011;33476;50.984;3.538;2023-07-13T04:49:12;8.27;;;1.58;;
47715;SDS011;33476;50.984;3.538;2023-07-13T04:51:37;12.40;;;1.60;;
47715;SDS011;33476;50.984;3.538;2023-07-13T04:54:03;9.48;;;1.73;;
47715;SDS011;33476;50.984;3.538;2023-07-13T04:56:30;12.43;;;1.35;;
47715;SDS011;33476;50.984;3.538;2023-07-13T04:58:55;13.50;;;1.90;;
47715;SDS011;33476;50.984;3.538;2023-07-13T05:01:20;11.88;;;1.95;;
47715;SDS011;33476;50.984;3.538;2023-07-13T05:03:46;11.82;;;1.65;;
47715;SDS011;33476;50.984;3.538;2023-07-13T05:06:11;10.65;;;1.27;;
47715;SDS011;33476;50.984;3.538;2023-07-13T05:08:38;8.13;;;1.67;;
47715;SDS011;33476;50.984;3.538;2023-07-13T05:11:04;8.30;;;1.38;;
47715;SDS011;33476;50.984;3.538;2023-07-13T05:13:32;14.30;;;2.10;;
47715;SDS011;33476;50.984;3.538;2023-07-13T05:15:58;10.20;;;1.30;;
47715;SDS011;33476;50.984;3.538;2023-07-13T05:18:25;11.68;;;1.50;;
47715;SDS011;33476;50.984;3.538;2023-07-13T05:21:04;10.40;;;1.80;;
47715;SDS011;33476;50.984;3.538;2023-07-13T05:23:32;9.57;;;1.90;;
47715;SDS011;33476;50.984;3.538;2023-07-13T05:25:58;15.20;;;1.83;;
47715;SDS011;33476;50.984;3.538;2023-07-13T05:28:24;12.43;;;1.83;;
47715;SDS011;33476;50.984;3.538;2023-07-13T05:30:50;11.80;;;2.00;;
47715;SDS011;33476;50.984;3.538;2023-07-13T05:33:16;10.35;;;1.50;;
47715;SDS011;33476;50.984;3.538;2023-07-13T05:35:41;10.60;;;1.63;;
47715;SDS011;33476;50.984;3.538;2023-07-13T05:38:07;11.70;;;2.25;;
47715;SDS011;33476;50.984;3.538;2023-07-13T05:40:32;11.23;;;1.45;;
47715;SDS011;33476;50.984;3.538;2023-07-13T05:42:58;17.90;;;2.33;;
47715;SDS011;33476;50.984;3.538;2023-07-13T05:45:23;11.57;;;1.83;;
47715;SDS011;33476;50.984;3.538;2023-07-13T05:47:49;14.55;;;1.80;;
47715;SDS011;33476;50.984;3.538;2023-07-13T05:50:15;14.68;;;1.85;;
47715;SDS011;33476;50.984;3.538;2023-07-13T05:52:40;13.52;;;2.00;;
47715;SDS011;33476;50.984;3.538;2023-07-13T05:55:05;14.65;;;1.92;;
47715;SDS011;33476;50.984;3.538;2023-07-13T05:57:31;9.98;;;1.83;;
47715;SDS011;33476;50.984;3.538;2023-07-13T05:59:56;12.77;;;1.23;;
47715;SDS011;33476;50.984;3.538;2023-07-13T06:02:22;9.10;;;1.42;;
47715;SDS011;33476;50.984;3.538;2023-07-13T06:04:48;12.68;;;1.45;;
47715;SDS011;33476;50.984;3.538;2023-07-13T06:07:13;10.07;;;1.85;;
47715;SDS011;33476;50.984;3.538;2023-07-13T06:09:38;11.77;;;1.52;;
47715;SDS011;33476;50.984;3.538;2023-07-13T06:12:04;13.80;;;1.75;;
47715;SDS011;33476;50.984;3.538;2023-07-13T06:14:30;12.20;;;1.95;;
47715;SDS011;33476;50.984;3.538;2023-07-13T06:16:55;11.40;;;1.65;;
47715;SDS011;33476;50.984;3.538;2023-07-13T06:19:20;12.93;;;1.77;;
47715;SDS011;33476;50.984;3.538;2023-07-13T06:21:46;12.60;;;1.92;;
47715;SDS011;33476;50.984;3.538;2023-07-13T06:24:11;14.05;;;1.80;;
47715;SDS011;33476;50.984;3.538;2023-07-13T06:26:36;14.40;;;1.75;;
47715;SDS011;33476;50.984;3.538;2023-07-13T06:29:02;12.32;;;1.80;;
47715;SDS011;33476;50.984;3.538;2023-07-13T06:31:27;12.70;;;2.35;;
47715;SDS011;33476;50.984;3.538;2023-07-13T06:33:53;12.98;;;1.90;;
47715;SDS011;33476;50.984;3.538;2023-07-13T06:36:18;9.52;;;1.65;;
47715;SDS011;33476;50.984;3.538;2023-07-13T06:38:43;12.93;;;1.73;;
47715;SDS011;33476;50.984;3.538;2023-07-13T06:41:09;9.80;;;1.50;;
47715;SDS011;33476;50.984;3.538;2023-07-13T06:43:34;12.70;;;1.80;;
47715;SDS011;33476;50.984;3.538;2023-07-13T06:46:00;15.68;;;1.83;;
47715;SDS011;33476;50.984;3.538;2023-07-13T06:48:26;13.68;;;2.22;;
47715;SDS011;33476;50.984;3.538;2023-07-13T06:50:52;9.60;;;1.48;;
47715;SDS011;33476;50.984;3.538;2023-07-13T06:53:18;13.65;;;1.98;;
47715;SDS011;33476;50.984;3.538;2023-07-13T06:55:45;9.85;;;2.00;;
47715;SDS011;33476;50.984;3.538;2023-07-13T06:58:11;14.23;;;2.00;;
47715;SDS011;33476;50.984;3.538;2023-07-13T07:00:37;10.15;;;1.70;;
47715;SDS011;33476;50.984;3.538;2023-07-13T07:03:05;14.23;;;2.05;;
47715;SDS011;33476;50.984;3.538;2023-07-13T07:05:30;10.85;;;1.73;;
47715;SDS011;33476;50.984;3.538;2023-07-13T07:07:56;11.57;;;1.80;;
47715;SDS011;33476;50.984;3.538;2023-07-13T07:10:21;10.18;;;1.23;;
47715;SDS011;33476;50.984;3.538;2023-07-13T07:12:47;8.50;;;1.50;;
47715;SDS011;33476;50.984;3.538;2023-07-13T07:15:12;9.27;;;1.02;;
47715;SDS011;33476;50.984;3.538;2023-07-13T07:17:39;10.38;;;1.50;;
47715;SDS011;33476;50.984;3.538;2023-07-13T07:20:05;6.93;;;1.27;;
47715;SDS011;33476;50.984;3.538;2023-07-13T07:22:31;9.57;;;1.27;;
47715;SDS011;33476;50.984;3.538;2023-07-13T07:24:57;9.75;;;1.30;;
47715;SDS011;33476;50.984;3.538;2023-07-13T07:27:22;12.13;;;1.60;;
47715;SDS011;33476;50.984;3.538;2023-07-13T07:29:48;6.95;;;1.23;;
47715;SDS011;33476;50.984;3.538;2023-07-13T07:32:14;7.35;;;1.10;;
47715;SDS011;33476;50.984;3.538;2023-07-13T07:34:39;9.60;;;1.48;;
47715;SDS011;33476;50.984;3.538;2023-07-13T07:37:05;6.70;;;0.90;;
47715;SDS011;33476;50.984;3.538;2023-07-13T07:39:30;11.10;;;1.35;;
47715;SDS011;33476;50.984;3.538;2023-07-13T07:41:56;11.52;;;1.38;;
47715;SDS011;33476;50.984;3.538;2023-07-13T07:44:21;9.80;;;1.50;;
47715;SDS011;33476;50.984;3.538;2023-07-13T07:46:47;8.65;;;1.25;;
47715;SDS011;33476;50.984;3.538;2023-07-13T07:49:12;13.75;;;1.40;;
47715;SDS011;33476;50.984;3.538;2023-07-13T07:51:38;12.60;;;1.15;;
47715;SDS011;33476;50.984;3.538;2023-07-13T07:54:03;7.65;;;0.88;;
47715;SDS011;33476;50.984;3.538;2023-07-13T07:56:29;11.82;;;1.38;;
47715;SDS011;33476;50.984;3.538;2023-07-13T07:58:55;9.38;;;1.60;;
47715;SDS011;33476;50.984;3.538;2023-07-13T08:01:20;9.82;;;1.23;;
47715;SDS011;33476;50.984;3.538;2023-07-13T08:03:46;5.05;;;1.30;;
47715;SDS011;33476;50.984;3.538;2023-07-13T08:06:11;9.23;;;1.50;;
47715;SDS011;33476;50.984;3.538;2023-07-13T08:08:37;9.30;;;1.50;;
47715;SDS011;33476;50.984;3.538;2023-07-13T08:11:04;13.38;;;1.50;;
47715;SDS011;33476;50.984;3.538;2023-07-13T08:13:30;6.95;;;0.98;;
47715;SDS011;33476;50.984;3.538;2023-07-13T08:15:55;6.97;;;0.90;;
47715;SDS011;33476;50.984;3.538;2023-07-13T08:18:21;11.05;;;0.70;;
47715;SDS011;33476;50.984;3.538;2023-07-13T08:20:46;10.40;;;0.95;;
47715;SDS011;33476;50.984;3.538;2023-07-13T08:23:11;8.23;;;0.85;;
47715;SDS011;33476;50.984;3.538;2023-07-13T08:25:37;10.45;;;1.23;;
47715;SDS011;33476;50.984;3.538;2023-07-13T08:28:02;5.45;;;0.88;;
47715;SDS011;33476;50.984;3.538;2023-07-13T08:30:28;5.63;;;0.65;;
47715;SDS011;33476;50.984;3.538;2023-07-13T08:32:54;7.68;;;0.60;;
47715;SDS011;33476;50.984;3.538;2023-07-13T08:35:19;3.13;;;0.60;;
47715;SDS011;33476;50.984;3.538;2023-07-13T08:37:44;5.55;;;0.82;;
47715;SDS011;33476;50.984;3.538;2023-07-13T08:40:10;8.13;;;0.50;;
47715;SDS011;33476;50.984;3.538;2023-07-13T08:50:35;9.90;;;1.00;;
47715;SDS011;33476;50.984;3.538;2023-07-13T08:53:22;7.30;;;0.80;;
47715;SDS011;33476;50.984;3.538;2023-07-13T08:55:51;6.15;;;0.73;;
47715;SDS011;33476;50.984;3.538;2023-07-13T08:58:24;7.20;;;0.60;;
47715;SDS011;33476;50.984;3.538;2023-07-13T09:09:31;10.98;;;0.80;;
47715;SDS011;33476;50.984;3.538;2023-07-13T09:12:04;8.85;;;0.60;;
47715;SDS011;33476;50.984;3.538;2023-07-13T09:14:41;5.28;;;0.88;;
47715;SDS011;33476;50.984;3.538;2023-07-13T09:17:11;5.70;;;0.70;;
47715;SDS011;33476;50.984;3.538;2023-07-13T09:19:45;5.07;;;0.60;;
47715;SDS011;33476;50.984;3.538;2023-07-13T09:22:17;12.55;;;0.75;;
47715;SDS011;33476;50.984;3.538;2023-07-13T09:27:41;6.28;;;0.70;;
47715;SDS011;33476;50.984;3.538;2023-07-13T09:32:39;5.78;;;0.70;;
47715;SDS011;33476;50.984;3.538;2023-07-13T09:35:11;7.30;;;0.70;;
47715;SDS011;33476;50.984;3.538;2023-07-13T09:37:40;6.32;;;0.63;;
47715;SDS011;33476;50.984;3.538;2023-07-13T09:40:11;11.85;;;1.05;;
47715;SDS011;33476;50.984;3.538;2023-07-13T09:42:48;7.10;;;0.60;;
47715;SDS011;33476;50.984;3.538;2023-07-13T09:45:17;12.38;;;1.10;;
47715;SDS011;33476;50.984;3.538;2023-07-13T09:47:54;8.65;;;0.60;;
47715;SDS011;33476;50.984;3.538;2023-07-13T09:50:24;8.70;;;0.85;;
47715;SDS011;33476;50.984;3.538;2023-07-13T09:52:50;3.80;;;0.40;;
47715;SDS011;33476;50.984;3.538;2023-07-13T09:57:48;3.35;;;0.60;;
47715;SDS011;33476;50.984;3.538;2023-07-13T10:00:23;5.35;;;0.40;;
47715;SDS011;33476;50.984;3.538;2023-07-13T10:02:58;8.07;;;0.85;;
47715;SDS011;33476;50.984;3.538;2023-07-13T10:05:25;3.58;;;0.43;;
47715;SDS011;33476;50.984;3.538;2023-07-13T10:07:50;6.43;;;0.45;;
47715;SDS011;33476;50.984;3.538;2023-07-13T10:10:17;3.72;;;0.40;;
47715;SDS011;33476;50.984;3.538;2023-07-13T10:12:46;5.50;;;0.55;;
47715;SDS011;33476;50.984;3.538;2023-07-13T10:15:19;6.03;;;0.88;;
47715;SDS011;33476;50.984;3.538;2023-07-13T10:17:46;5.05;;;0.65;;
47715;SDS011;33476;50.984;3.538;2023-07-13T10:20:14;2.63;;;0.35;;
47715;SDS011;33476;50.984;3.538;2023-07-13T10:22:44;5.50;;;0.40;;
47715;SDS011;33476;50.984;3.538;2023-07-13T10:25:18;6.05;;;0.45;;
47715;SDS011;33476;50.984;3.538;2023-07-13T10:27:47;3.22;;;0.50;;
47715;SDS011;33476;50.984;3.538;2023-07-13T10:30:23;4.88;;;0.35;;
47715;SDS011;33476;50.984;3.538;2023-07-13T10:32:53;4.50;;;0.40;;
47715;SDS011;33476;50.984;3.538;2023-07-13T10:35:19;5.47;;;0.70;;
47715;SDS011;33476;50.984;3.538;2023-07-13T10:37:52;3.67;;;0.70;;
47715;SDS011;33476;50.984;3.538;2023-07-13T10:40:23;3.47;;;0.65;;
47715;SDS011;33476;50.984;3.538;2023-07-13T10:42:53;5.80;;;0.52;;
47715;SDS011;33476;50.984;3.538;2023-07-13T10:45:22;4.05;;;0.40;;
47715;SDS011;33476;50.984;3.538;2023-07-13T10:47:49;1.83;;;0.35;;
47715;SDS011;33476;50.984;3.538;2023-07-13T10:50:28;4.38;;;0.40;;
47715;SDS011;33476;50.984;3.538;2023-07-13T10:53:01;4.85;;;0.60;;
47715;SDS011;33476;50.984;3.538;2023-07-13T10:56:02;2.38;;;0.60;;
47715;SDS011;33476;50.984;3.538;2023-07-13T10:58:38;2.70;;;0.30;;
47715;SDS011;33476;50.984;3.538;2023-07-13T11:03:35;3.97;;;0.50;;
47715;SDS011;33476;50.984;3.538;2023-07-13T11:09:03;2.90;;;0.70;;
47715;SDS011;33476;50.984;3.538;2023-07-13T11:11:43;3.63;;;0.57;;
47715;SDS011;33476;50.984;3.538;2023-07-13T11:16:55;4.57;;;0.40;;
47715;SDS011;33476;50.984;3.538;2023-07-13T11:28:27;5.53;;;0.55;;
47715;SDS011;33476;50.984;3.538;2023-07-13T11:36:04;4.13;;;0.70;;
47715;SDS011;33476;50.984;3.538;2023-07-13T11:41:22;4.03;;;0.70;;
47715;SDS011;33476;50.984;3.538;2023-07-13T11:43:55;6.53;;;0.60;;
47715;SDS011;33476;50.984;3.538;2023-07-13T11:46:30;3.50;;;0.73;;
47715;SDS011;33476;50.984;3.538;2023-07-13T11:48:55;7.30;;;0.90;;
47715;SDS011;33476;50.984;3.538;2023-07-13T11:51:21;4.50;;;0.88;;
47715;SDS011;33476;50.984;3.538;2023-07-13T11:53:52;4.82;;;0.75;;
47715;SDS011;33476;50.984;3.538;2023-07-13T11:56:19;4.13;;;0.50;;
47715;SDS011;33476;50.984;3.538;2023-07-13T11:58:47;4.20;;;0.57;;
47715;SDS011;33476;50.984;3.538;2023-07-13T12:01:26;3.17;;;0.93;;
47715;SDS011;33476;50.984;3.538;2023-07-13T12:03:57;4.65;;;0.75;;
47715;SDS011;33476;50.984;3.538;2023-07-13T12:08:58;5.20;;;0.60;;
47715;SDS011;33476;50.984;3.538;2023-07-13T12:11:25;3.78;;;0.70;;
47715;SDS011;33476;50.984;3.538;2023-07-13T12:13:51;3.60;;;0.50;;
47715;SDS011;33476;50.984;3.538;2023-07-13T12:16:22;4.32;;;0.43;;
47715;SDS011;33476;50.984;3.538;2023-07-13T12:18:49;1.92;;;0.52;;
47715;SDS011;33476;50.984;3.538;2023-07-13T12:21:18;4.80;;;0.65;;
47715;SDS011;33476;50.984;3.538;2023-07-13T12:23:47;5.00;;;0.40;;
47715;SDS011;33476;50.984;3.538;2023-07-13T12:26:14;3.60;;;0.70;;
47715;SDS011;33476;50.984;3.538;2023-07-13T12:32:02;2.08;;;0.40;;
47715;SDS011;33476;50.984;3.538;2023-07-13T12:36:37;1.48;;;0.30;;
47715;SDS011;33476;50.984;3.538;2023-07-13T12:41:51;8.25;;;0.57;;
47715;SDS011;33476;50.984;3.538;2023-07-13T12:44:18;10.75;;;0.75;;
47715;SDS011;33476;50.984;3.538;2023-07-13T12:46:53;6.65;;;0.65;;
47715;SDS011;33476;50.984;3.538;2023-07-13T12:49:27;2.53;;;0.40;;
47715;SDS011;33476;50.984;3.538;2023-07-13T12:52:00;8.25;;;0.47;;
47715;SDS011;33476;50.984;3.538;2023-07-13T12:54:28;12.90;;;0.70;;
47715;SDS011;33476;50.984;3.538;2023-07-13T12:56:55;3.58;;;0.30;;
47715;SDS011;33476;50.984;3.538;2023-07-13T12:59:23;6.00;;;0.20;;
47715;SDS011;33476;50.984;3.538;2023-07-13T13:01:53;3.28;;;0.50;;
47715;SDS011;33476;50.984;3.538;2023-07-13T13:04:18;9.57;;;0.40;;
47715;SDS011;33476;50.984;3.538;2023-07-13T13:06:48;1.60;;;0.40;;
47715;SDS011;33476;50.984;3.538;2023-07-13T13:09:14;8.13;;;0.63;;
47715;SDS011;33476;50.984;3.538;2023-07-13T13:11:43;5.40;;;0.40;;
47715;SDS011;33476;50.984;3.538;2023-07-13T13:14:08;6.20;;;0.55;;
47715;SDS011;33476;50.984;3.538;2023-07-13T13:16:44;3.63;;;0.40;;
47715;SDS011;33476;50.984;3.538;2023-07-13T13:19:15;2.92;;;0.45;;
47715;SDS011;33476;50.984;3.538;2023-07-13T13:21:43;2.42;;;0.20;;
47715;SDS011;33476;50.984;3.538;2023-07-13T13:24:14;4.43;;;0.30;;
47715;SDS011;33476;50.984;3.538;2023-07-13T13:26:42;3.00;;;0.30;;
47715;SDS011;33476;50.984;3.538;2023-07-13T13:29:12;5.28;;;0.40;;
47715;SDS011;33476;50.984;3.538;2023-07-13T13:31:40;0.88;;;0.30;;
47715;SDS011;33476;50.984;3.538;2023-07-13T13:34:10;2.78;;;0.30;;
47715;SDS011;33476;50.984;3.538;2023-07-13T13:36:36;1.88;;;0.30;;
47715;SDS011;33476;50.984;3.538;2023-07-13T13:39:05;1.30;;;0.40;;
47715;SDS011;33476;50.984;3.538;2023-07-13T13:41:41;2.60;;;0.40;;
47715;SDS011;33476;50.984;3.538;2023-07-13T13:44:08;2.83;;;0.25;;
47715;SDS011;33476;50.984;3.538;2023-07-13T13:46:35;1.38;;;0.20;;
47715;SDS011;33476;50.984;3.538;2023-07-13T13:49:01;4.95;;;0.20;;
47715;SDS011;33476;50.984;3.538;2023-07-13T13:51:27;2.45;;;0.20;;
47715;SDS011;33476;50.984;3.538;2023-07-13T13:53:54;2.75;;;0.38;;
47715;SDS011;33476;50.984;3.538;2023-07-13T13:56:19;4.50;;;0.38;;
47715;SDS011;33476;50.984;3.538;2023-07-13T13:58:45;3.60;;;0.20;;
47715;SDS011;33476;50.984;3.538;2023-07-13T14:01:12;2.15;;;0.40;;
47715;SDS011;33476;50.984;3.538;2023-07-13T14:06:07;2.28;;;0.35;;
47715;SDS011;33476;50.984;3.538;2023-07-13T14:08:36;2.95;;;0.30;;
47715;SDS011;33476;50.984;3.538;2023-07-13T14:11:01;2.00;;;0.30;;
47715;SDS011;33476;50.984;3.538;2023-07-13T14:13:28;1.00;;;0.30;;
47715;SDS011;33476;50.984;3.538;2023-07-13T14:15:59;1.58;;;0.43;;
47715;SDS011;33476;50.984;3.538;2023-07-13T14:18:24;2.60;;;0.20;;
47715;SDS011;33476;50.984;3.538;2023-07-13T14:20:50;1.65;;;0.30;;
47715;SDS011;33476;50.984;3.538;2023-07-13T14:23:17;2.47;;;0.30;;
47715;SDS011;33476;50.984;3.538;2023-07-13T14:25:43;1.80;;;0.20;;
47715;SDS011;33476;50.984;3.538;2023-07-13T14:28:19;5.05;;;0.40;;
47715;SDS011;33476;50.984;3.538;2023-07-13T14:30:47;2.20;;;0.30;;
47715;SDS011;33476;50.984;3.538;2023-07-13T14:33:14;2.47;;;0.30;;
47715;SDS011;33476;50.984;3.538;2023-07-13T14:35:39;2.03;;;0.20;;
47715;SDS011;33476;50.984;3.538;2023-07-13T14:38:04;2.40;;;0.30;;
47715;SDS011;33476;50.984;3.538;2023-07-13T14:40:33;0.90;;;0.20;;
47715;SDS011;33476;50.984;3.538;2023-07-13T14:42:59;3.35;;;0.38;;
47715;SDS011;33476;50.984;3.538;2023-07-13T14:45:24;1.25;;;0.20;;
47715;SDS011;33476;50.984;3.538;2023-07-13T14:47:50;2.83;;;0.20;;
47715;SDS011;33476;50.984;3.538;2023-07-13T14:50:18;3.30;;;0.20;;
47715;SDS011;33476;50.984;3.538;2023-07-13T14:52:45;3.90;;;0.20;;
47715;SDS011;33476;50.984;3.538;2023-07-13T14:55:13;3.63;;;0.20;;
47715;SDS011;33476;50.984;3.538;2023-07-13T14:57:40;1.63;;;0.20;;
47715;SDS011;33476;50.984;3.538;2023-07-13T15:00:26;2.20;;;0.20;;
47715;SDS011;33476;50.984;3.538;2023-07-13T15:02:53;2.15;;;0.30;;
47715;SDS011;33476;50.984;3.538;2023-07-13T15:05:30;3.90;;;0.38;;
47715;SDS011;33476;50.984;3.538;2023-07-13T15:07:57;3.13;;;0.20;;
47715;SDS011;33476;50.984;3.538;2023-07-13T15:10:26;1.67;;;0.20;;
47715;SDS011;33476;50.984;3.538;2023-07-13T15:13:00;3.22;;;0.20;;
47715;SDS011;33476;50.984;3.538;2023-07-13T15:15:29;4.35;;;0.40;;
47715;SDS011;33476;50.984;3.538;2023-07-13T15:17:58;1.02;;;0.30;;
47715;SDS011;33476;50.984;3.538;2023-07-13T15:20:29;5.32;;;0.38;;
47715;SDS011;33476;50.984;3.538;2023-07-13T15:22:57;1.23;;;0.20;;
47715;SDS011;33476;50.984;3.538;2023-07-13T15:25:25;1.52;;;0.30;;
47715;SDS011;33476;50.984;3.538;2023-07-13T15:27:56;0.60;;;0.10;;
47715;SDS011;33476;50.984;3.538;2023-07-13T15:30:24;1.52;;;0.28;;
47715;SDS011;33476;50.984;3.538;2023-07-13T15:32:52;4.72;;;0.17;;
47715;SDS011;33476;50.984;3.538;2023-07-13T15:35:18;0.95;;;0.20;;
47715;SDS011;33476;50.984;3.538;2023-07-13T15:37:45;2.70;;;0.20;;
47715;SDS011;33476;50.984;3.538;2023-07-13T15:40:11;1.95;;;0.20;;
47715;SDS011;33476;50.984;3.538;2023-07-13T15:42:38;1.13;;;0.20;;
47715;SDS011;33476;50.984;3.538;2023-07-13T15:45:24;1.83;;;0.30;;
47715;SDS011;33476;50.984;3.538;2023-07-13T15:47:49;2.55;;;0.30;;
47715;SDS011;33476;50.984;3.538;2023-07-13T15:50:17;1.52;;;0.22;;